createdAt,value
2017-10-17T00:00:56.067Z,1017.72
2017-10-17T00:01:56.086Z,1017.70
2017-10-17T00:02:56.017Z,1017.71
2017-10-17T00:03:56.101Z,1017.70
2017-10-17T00:04:55.981Z,1017.72
2017-10-17T00:05:56.013Z,1017.75
2017-10-17T00:06:55.935Z,1017.75
2017-10-17T00:07:56.044Z,1017.74
2017-10-17T00:08:55.889Z,1017.76
2017-10-17T00:09:55.937Z,1017.77
2017-10-17T00:10:55.841Z,1017.77
2017-10-17T00:11:55.849Z,1017.79
2017-10-17T00:12:55.792Z,1017.75
2017-10-17T00:13:55.861Z,1017.79
2017-10-17T00:14:55.765Z,1017.79
2017-10-17T00:15:55.773Z,1017.78
2017-10-17T00:16:55.704Z,1017.75
2017-10-17T00:17:55.787Z,1017.74
2017-10-17T00:18:55.661Z,1017.70
2017-10-17T00:19:55.699Z,1017.73
2017-10-17T00:20:55.618Z,1017.73
2017-10-17T00:21:55.613Z,1017.82
2017-10-17T00:22:55.573Z,1017.80
2017-10-17T00:23:55.624Z,1017.79
2017-10-17T00:24:55.529Z,1017.81
2017-10-17T00:25:55.537Z,1017.78
2017-10-17T00:26:55.510Z,1017.73
2017-10-17T00:27:56.572Z,1017.79
2017-10-17T00:28:55.434Z,1017.80
2017-10-17T00:29:55.459Z,1017.75
2017-10-17T00:30:55.388Z,1017.74
2017-10-17T00:31:55.472Z,1017.77
2017-10-17T00:32:55.343Z,1017.84
2017-10-17T00:33:55.384Z,1017.79
2017-10-17T00:34:55.301Z,1017.78
2017-10-17T00:35:55.294Z,1017.80
2017-10-17T00:36:55.261Z,1017.84
2017-10-17T00:37:55.307Z,1017.79
2017-10-17T00:38:55.211Z,1017.86
2017-10-17T00:39:55.221Z,1017.82
2017-10-17T00:40:55.163Z,1017.81
2017-10-17T00:41:55.234Z,1017.85
2017-10-17T00:42:55.124Z,1017.77
2017-10-17T00:43:55.146Z,1017.80
2017-10-17T00:44:55.072Z,1017.81
2017-10-17T00:45:55.160Z,1017.86
2017-10-17T00:46:55.029Z,1017.84
2017-10-17T00:47:55.070Z,1017.84
2017-10-17T00:48:54.984Z,1017.84
2017-10-17T00:49:54.984Z,1017.84
2017-10-17T00:50:54.938Z,1017.87
2017-10-17T00:51:54.994Z,1017.84
2017-10-17T00:52:54.899Z,1017.84
2017-10-17T00:53:54.917Z,1017.82
2017-10-17T00:54:54.851Z,1017.82
2017-10-17T00:55:54.921Z,1017.84
2017-10-17T00:56:54.802Z,1017.83
2017-10-17T00:57:54.833Z,1017.85
2017-10-17T00:58:54.765Z,1017.86
2017-10-17T00:59:54.845Z,1017.87
2017-10-17T01:00:54.711Z,1017.88
2017-10-17T01:01:54.756Z,1017.87
2017-10-17T01:02:54.668Z,1017.88
2017-10-17T01:03:54.674Z,1017.91
2017-10-17T01:04:54.626Z,1017.85
2017-10-17T01:05:54.687Z,1017.94
2017-10-17T01:06:54.589Z,1017.95
2017-10-17T01:07:54.594Z,1017.91
2017-10-17T01:08:54.534Z,1017.90
2017-10-17T01:09:54.613Z,1017.90
2017-10-17T01:10:54.485Z,1017.95
2017-10-17T01:11:54.521Z,1017.91
2017-10-17T01:12:54.440Z,1017.89
2017-10-17T01:13:54.432Z,1017.93
2017-10-17T01:14:54.398Z,1017.90
2017-10-17T01:15:54.446Z,1017.90
2017-10-17T01:16:54.350Z,1017.95
2017-10-17T01:17:54.360Z,1017.88
2017-10-17T01:18:54.305Z,1017.94
2017-10-17T01:19:54.370Z,1017.92
2017-10-17T01:20:54.257Z,1017.87
2017-10-17T01:21:54.284Z,1017.86
2017-10-17T01:22:54.219Z,1017.88
2017-10-17T01:23:54.301Z,1017.90
2017-10-17T01:24:54.168Z,1017.93
2017-10-17T01:25:54.211Z,1017.93
2017-10-17T01:26:54.125Z,1017.89
2017-10-17T01:27:54.119Z,1017.89
2017-10-17T01:28:54.091Z,1017.94
2017-10-17T01:29:54.139Z,1017.93
2017-10-17T01:30:54.032Z,1017.95
2017-10-17T01:31:54.045Z,1017.93
2017-10-17T01:32:53.990Z,1017.90
2017-10-17T01:33:54.062Z,1017.92
2017-10-17T01:34:53.941Z,1017.93
2017-10-17T01:35:53.974Z,1017.93
2017-10-17T01:36:53.901Z,1017.90
2017-10-17T01:37:53.984Z,1017.91
2017-10-17T01:38:53.850Z,1017.93
2017-10-17T01:39:53.897Z,1017.94
2017-10-17T01:40:53.804Z,1017.94
2017-10-17T01:41:53.810Z,1018.00
2017-10-17T01:42:53.760Z,1017.96
2017-10-17T01:43:53.824Z,1017.98
2017-10-17T01:44:53.713Z,1018.00
2017-10-17T01:45:53.739Z,1017.96
2017-10-17T01:46:53.667Z,1017.95
2017-10-17T01:47:53.746Z,1017.98
2017-10-17T01:48:53.631Z,1017.98
2017-10-17T01:49:53.658Z,1018.00
2017-10-17T01:50:53.585Z,1017.99
2017-10-17T01:51:53.572Z,1017.99
2017-10-17T01:52:53.534Z,1017.98
2017-10-17T01:53:53.583Z,1017.98
2017-10-17T01:54:53.488Z,1018.00
2017-10-17T01:55:53.498Z,1018.01
2017-10-17T01:56:53.444Z,1017.99
2017-10-17T01:57:53.510Z,1018.01
2017-10-17T01:58:53.393Z,1018.07
2017-10-17T01:59:53.423Z,1018.09
2017-10-17T02:00:53.352Z,1018.09
2017-10-17T02:01:53.433Z,1018.12
2017-10-17T02:02:53.302Z,1018.07
2017-10-17T02:03:53.349Z,1018.08
2017-10-17T02:04:53.259Z,1018.05
2017-10-17T02:05:53.257Z,1018.04
2017-10-17T02:06:53.220Z,1018.03
2017-10-17T02:07:53.274Z,1018.00
2017-10-17T02:08:53.168Z,1018.03
2017-10-17T02:09:53.185Z,1017.99
2017-10-17T02:10:53.122Z,1018.03
2017-10-17T02:11:53.200Z,1018.03
2017-10-17T02:12:53.078Z,1018.05
2017-10-17T02:13:53.117Z,1018.05
2017-10-17T02:14:53.040Z,1018.09
2017-10-17T02:15:53.126Z,1018.05
2017-10-17T02:16:52.987Z,1018.08
2017-10-17T02:17:53.036Z,1018.07
2017-10-17T02:18:52.941Z,1018.05
2017-10-17T02:19:52.945Z,1018.05
2017-10-17T02:20:52.895Z,1018.06
2017-10-17T02:21:52.961Z,1018.07
2017-10-17T02:22:52.848Z,1018.04
2017-10-17T02:23:52.870Z,1018.06
2017-10-17T02:24:52.801Z,1018.03
2017-10-17T02:25:52.886Z,1018.05
2017-10-17T02:26:52.755Z,1018.02
2017-10-17T02:27:52.797Z,1018.03
2017-10-17T02:28:52.723Z,1018.05
2017-10-17T02:29:52.706Z,1018.03
2017-10-17T02:30:52.666Z,1018.09
2017-10-17T02:31:52.724Z,1018.10
2017-10-17T02:32:52.620Z,1018.08
2017-10-17T02:33:52.633Z,1018.07
2017-10-17T02:34:52.574Z,1018.12
2017-10-17T02:35:52.644Z,1018.11
2017-10-17T02:36:52.528Z,1018.09
2017-10-17T02:37:52.556Z,1018.12
2017-10-17T02:38:52.483Z,1018.08
2017-10-17T02:39:52.572Z,1018.14
2017-10-17T02:40:52.437Z,1018.17
2017-10-17T02:41:52.486Z,1018.17
2017-10-17T02:42:52.388Z,1018.19
2017-10-17T02:43:52.393Z,1018.19
2017-10-17T02:44:52.346Z,1018.14
2017-10-17T02:45:52.410Z,1018.23
2017-10-17T02:46:52.301Z,1018.24
2017-10-17T02:47:52.319Z,1018.23
2017-10-17T02:48:52.255Z,1018.19
2017-10-17T02:49:52.335Z,1018.13
2017-10-17T02:50:52.212Z,1018.12
2017-10-17T02:51:52.244Z,1018.12
2017-10-17T02:52:52.161Z,1018.12
2017-10-17T02:53:52.156Z,1018.09
2017-10-17T02:54:52.116Z,1018.12
2017-10-17T02:55:52.167Z,1018.13
2017-10-17T02:56:52.069Z,1018.16
2017-10-17T02:57:52.080Z,1018.14
2017-10-17T02:58:52.021Z,1018.13
2017-10-17T02:59:52.094Z,1018.19
2017-10-17T03:00:51.981Z,1018.26
2017-10-17T03:01:52.016Z,1018.23
2017-10-17T03:02:51.931Z,1018.21
2017-10-17T03:03:51.918Z,1018.23
2017-10-17T03:04:51.888Z,1018.25
2017-10-17T03:05:52.959Z,1018.25
2017-10-17T03:06:51.834Z,1018.25
2017-10-17T03:07:51.840Z,1018.21
2017-10-17T03:08:51.793Z,1018.23
2017-10-17T03:09:51.858Z,1018.26
2017-10-17T03:10:51.743Z,1018.22
2017-10-17T03:11:51.776Z,1018.19
2017-10-17T03:12:51.698Z,1018.27
2017-10-17T03:13:51.782Z,1018.24
2017-10-17T03:14:51.652Z,1018.24
2017-10-17T03:15:51.696Z,1018.18
2017-10-17T03:16:51.606Z,1018.22
2017-10-17T03:17:51.606Z,1018.19
2017-10-17T03:18:51.561Z,1018.17
2017-10-17T03:19:51.617Z,1018.24
2017-10-17T03:20:51.515Z,1018.19
2017-10-17T03:21:51.531Z,1018.23
2017-10-17T03:22:51.472Z,1018.19
2017-10-17T03:23:51.549Z,1018.21
2017-10-17T03:24:51.424Z,1018.21
2017-10-17T03:25:51.455Z,1018.20
2017-10-17T03:26:51.376Z,1018.19
2017-10-17T03:27:51.373Z,1018.22
2017-10-17T03:28:51.333Z,1018.23
2017-10-17T03:29:51.381Z,1018.28
2017-10-17T03:30:51.283Z,1018.28
2017-10-17T03:31:51.293Z,1018.29
2017-10-17T03:32:51.240Z,1018.30
2017-10-17T03:33:51.308Z,1018.31
2017-10-17T03:34:51.187Z,1018.29
2017-10-17T03:35:51.222Z,1018.31
2017-10-17T03:36:51.142Z,1018.29
2017-10-17T03:37:51.233Z,1018.32
2017-10-17T03:38:51.097Z,1018.28
2017-10-17T03:39:51.145Z,1018.31
2017-10-17T03:40:51.048Z,1018.32
2017-10-17T03:41:51.058Z,1018.32
2017-10-17T03:42:51.006Z,1018.32
2017-10-17T03:43:51.072Z,1018.33
2017-10-17T03:44:50.958Z,1018.33
2017-10-17T03:45:50.984Z,1018.33
2017-10-17T03:46:50.916Z,1018.34
2017-10-17T03:47:50.997Z,1018.32
2017-10-17T03:48:50.870Z,1018.36
2017-10-17T03:49:50.906Z,1018.34
2017-10-17T03:50:50.826Z,1018.31
2017-10-17T03:51:50.820Z,1018.34
2017-10-17T03:52:50.785Z,1018.34
2017-10-17T03:53:50.834Z,1018.35
2017-10-17T03:54:50.730Z,1018.34
2017-10-17T03:55:50.743Z,1018.37
2017-10-17T03:56:50.680Z,1018.35
2017-10-17T03:57:50.762Z,1018.37
2017-10-17T03:58:50.633Z,1018.40
2017-10-17T03:59:50.671Z,1018.39
2017-10-17T04:00:50.588Z,1018.40
2017-10-17T04:01:50.579Z,1018.39
2017-10-17T04:02:50.547Z,1018.46
2017-10-17T04:03:50.596Z,1018.47
2017-10-17T04:04:50.503Z,1018.41
2017-10-17T04:05:50.507Z,1018.42
2017-10-17T04:06:50.451Z,1018.44
2017-10-17T04:07:50.521Z,1018.45
2017-10-17T04:08:50.403Z,1018.48
2017-10-17T04:09:50.432Z,1018.47
2017-10-17T04:10:50.366Z,1018.47
2017-10-17T04:11:50.447Z,1018.49
2017-10-17T04:12:50.311Z,1018.49
2017-10-17T04:13:50.357Z,1018.48
2017-10-17T04:14:50.284Z,1018.46
2017-10-17T04:15:50.270Z,1018.46
2017-10-17T04:16:50.223Z,1018.52
2017-10-17T04:17:50.288Z,1018.49
2017-10-17T04:18:50.176Z,1018.54
2017-10-17T04:19:50.197Z,1018.52
2017-10-17T04:20:50.126Z,1018.54
2017-10-17T04:21:50.213Z,1018.49
2017-10-17T04:22:50.081Z,1018.49
2017-10-17T04:23:50.125Z,1018.52
2017-10-17T04:24:50.036Z,1018.56
2017-10-17T04:25:50.033Z,1018.56
2017-10-17T04:26:49.990Z,1018.61
2017-10-17T04:27:50.054Z,1018.57
2017-10-17T04:28:49.945Z,1018.53
2017-10-17T04:29:49.962Z,1018.50
2017-10-17T04:30:49.900Z,1018.50
2017-10-17T04:31:49.976Z,1018.52
2017-10-17T04:32:49.853Z,1018.55
2017-10-17T04:33:49.887Z,1018.52
2017-10-17T04:34:49.809Z,1018.57
2017-10-17T04:35:49.898Z,1018.55
2017-10-17T04:36:49.765Z,1018.53
2017-10-17T04:37:49.811Z,1018.62
2017-10-17T04:38:49.719Z,1018.57
2017-10-17T04:39:49.728Z,1018.62
2017-10-17T04:40:49.673Z,1018.59
2017-10-17T04:41:49.736Z,1018.60
2017-10-17T04:42:49.627Z,1018.62
2017-10-17T04:43:49.649Z,1018.62
2017-10-17T04:44:49.580Z,1018.62
2017-10-17T04:45:49.660Z,1018.64
2017-10-17T04:46:49.530Z,1018.69
2017-10-17T04:47:49.574Z,1018.69
2017-10-17T04:48:49.500Z,1018.73
2017-10-17T04:49:49.483Z,1018.70
2017-10-17T04:50:49.449Z,1018.71
2017-10-17T04:51:49.493Z,1018.75
2017-10-17T04:52:49.399Z,1018.76
2017-10-17T04:53:49.406Z,1018.77
2017-10-17T04:54:49.351Z,1018.78
2017-10-17T04:55:49.420Z,1018.79
2017-10-17T04:56:49.304Z,1018.79
2017-10-17T04:57:49.337Z,1018.82
2017-10-17T04:58:49.260Z,1018.83
2017-10-17T04:59:49.346Z,1018.87
2017-10-17T05:00:49.213Z,1018.84
2017-10-17T05:01:49.261Z,1018.86
2017-10-17T05:02:49.172Z,1018.86
2017-10-17T05:03:49.170Z,1018.84
2017-10-17T05:04:49.128Z,1018.85
2017-10-17T05:05:49.185Z,1018.87
2017-10-17T05:06:49.074Z,1018.83
2017-10-17T05:07:49.099Z,1018.84
2017-10-17T05:08:49.033Z,1018.84
2017-10-17T05:09:49.115Z,1018.84
2017-10-17T05:10:48.986Z,1018.83
2017-10-17T05:11:49.019Z,1018.88
2017-10-17T05:12:48.938Z,1018.92
2017-10-17T05:13:48.931Z,1018.90
2017-10-17T05:14:48.898Z,1018.86
2017-10-17T05:15:48.945Z,1018.86
2017-10-17T05:16:48.851Z,1018.87
2017-10-17T05:17:48.858Z,1018.89
2017-10-17T05:18:48.812Z,1018.91
2017-10-17T05:19:48.870Z,1018.91
2017-10-17T05:20:48.763Z,1018.92
2017-10-17T05:21:48.787Z,1018.87
2017-10-17T05:22:48.712Z,1018.87
2017-10-17T05:23:48.797Z,1018.88
2017-10-17T05:24:48.666Z,1018.87
2017-10-17T05:25:48.708Z,1018.89
2017-10-17T05:26:48.622Z,1018.92
2017-10-17T05:27:48.620Z,1018.92
2017-10-17T05:28:48.588Z,1018.92
2017-10-17T05:29:48.652Z,1018.89
2017-10-17T05:30:48.534Z,1018.90
2017-10-17T05:31:48.541Z,1018.85
2017-10-17T05:32:48.494Z,1018.84
2017-10-17T05:33:48.558Z,1018.86
2017-10-17T05:34:48.439Z,1018.83
2017-10-17T05:35:48.467Z,1018.84
2017-10-17T05:36:48.393Z,1018.85
2017-10-17T05:37:48.482Z,1018.82
2017-10-17T05:38:48.348Z,1018.83
2017-10-17T05:39:48.399Z,1018.89
2017-10-17T05:40:48.308Z,1018.92
2017-10-17T05:41:48.308Z,1018.89
2017-10-17T05:42:48.260Z,1018.93
2017-10-17T05:43:48.319Z,1018.94
2017-10-17T05:44:48.232Z,1018.93
2017-10-17T05:45:48.241Z,1018.93
2017-10-17T05:46:48.173Z,1018.92
2017-10-17T05:47:48.245Z,1018.93
2017-10-17T05:48:48.122Z,1018.95
2017-10-17T05:49:48.158Z,1018.90
2017-10-17T05:50:48.080Z,1018.89
2017-10-17T05:51:48.171Z,1018.93
2017-10-17T05:52:48.038Z,1018.92
2017-10-17T05:53:48.090Z,1018.91
2017-10-17T05:54:47.998Z,1018.92
2017-10-17T05:55:47.996Z,1018.90
2017-10-17T05:56:47.943Z,1018.90
2017-10-17T05:57:48.010Z,1018.92
2017-10-17T05:58:47.904Z,1018.94
2017-10-17T05:59:47.921Z,1018.95
2017-10-17T06:00:47.855Z,1018.90
2017-10-17T06:01:47.958Z,1018.95
2017-10-17T06:02:47.809Z,1018.99
2017-10-17T06:03:47.845Z,1018.98
2017-10-17T06:04:47.768Z,1018.97
2017-10-17T06:05:47.861Z,1019.01
2017-10-17T06:06:47.719Z,1019.04
2017-10-17T06:07:47.779Z,1019.02
2017-10-17T06:08:47.675Z,1019.06
2017-10-17T06:09:47.683Z,1019.03
2017-10-17T06:10:47.649Z,1019.07
2017-10-17T06:11:47.697Z,1019.07
2017-10-17T06:12:47.594Z,1019.03
2017-10-17T06:13:47.615Z,1019.03
2017-10-17T06:14:47.542Z,1019.02
2017-10-17T06:15:47.621Z,1019.06
2017-10-17T06:16:47.499Z,1019.05
2017-10-17T06:17:47.533Z,1019.05
2017-10-17T06:18:47.456Z,1019.07
2017-10-17T06:19:47.551Z,1019.08
2017-10-17T06:20:47.406Z,1019.07
2017-10-17T06:21:47.458Z,1019.07
2017-10-17T06:22:47.363Z,1019.08
2017-10-17T06:23:47.368Z,1019.07
2017-10-17T06:24:47.315Z,1019.06
2017-10-17T06:25:47.384Z,1019.06
2017-10-17T06:26:47.276Z,1019.05
2017-10-17T06:27:47.293Z,1019.05
2017-10-17T06:28:47.229Z,1019.10
2017-10-17T06:29:47.311Z,1019.09
2017-10-17T06:30:47.184Z,1019.07
2017-10-17T06:31:47.221Z,1019.12
2017-10-17T06:32:47.135Z,1019.08
2017-10-17T06:33:47.133Z,1019.07
2017-10-17T06:34:47.090Z,1019.11
2017-10-17T06:35:47.148Z,1019.12
2017-10-17T06:36:47.055Z,1019.06
2017-10-17T06:37:47.075Z,1019.10
2017-10-17T06:38:47.003Z,1019.12
2017-10-17T06:39:47.074Z,1019.09
2017-10-17T06:40:46.963Z,1019.10
2017-10-17T06:41:46.982Z,1019.14
2017-10-17T06:42:46.916Z,1019.13
2017-10-17T06:43:46.999Z,1019.14
2017-10-17T06:44:46.871Z,1019.17
2017-10-17T06:45:46.909Z,1019.13
2017-10-17T06:46:46.831Z,1019.13
2017-10-17T06:47:46.820Z,1019.16
2017-10-17T06:48:46.784Z,1019.12
2017-10-17T06:49:46.771Z,1019.16
2017-10-17T06:50:46.740Z,1019.14
2017-10-17T06:51:46.747Z,1019.20
2017-10-17T06:52:46.693Z,1019.14
2017-10-17T06:53:46.760Z,1019.20
2017-10-17T06:54:46.652Z,1019.18
2017-10-17T06:55:46.668Z,1019.19
2017-10-17T06:56:46.599Z,1019.20
2017-10-17T06:57:46.685Z,1019.21
2017-10-17T06:58:46.576Z,1019.21
2017-10-17T06:59:46.599Z,1019.19
2017-10-17T07:00:46.520Z,1019.17
2017-10-17T07:01:46.506Z,1019.19
2017-10-17T07:02:46.471Z,1019.21
2017-10-17T07:03:46.522Z,1019.21
2017-10-17T07:04:46.426Z,1019.23
2017-10-17T07:05:46.431Z,1019.22
2017-10-17T07:06:46.380Z,1019.25
2017-10-17T07:07:46.447Z,1019.25
2017-10-17T07:08:46.340Z,1019.24
2017-10-17T07:09:46.358Z,1019.29
2017-10-17T07:10:46.294Z,1019.25
2017-10-17T07:11:46.373Z,1019.26
2017-10-17T07:12:46.245Z,1019.27
2017-10-17T07:13:46.284Z,1019.30
2017-10-17T07:14:46.202Z,1019.30
2017-10-17T07:15:46.196Z,1019.35
2017-10-17T07:16:46.163Z,1019.33
2017-10-17T07:17:46.210Z,1019.31
2017-10-17T07:18:46.113Z,1019.29
2017-10-17T07:19:46.122Z,1019.28
2017-10-17T07:20:46.067Z,1019.28
2017-10-17T07:21:46.134Z,1019.26
2017-10-17T07:22:46.026Z,1019.24
2017-10-17T07:23:46.047Z,1019.27
2017-10-17T07:24:45.979Z,1019.28
2017-10-17T07:25:46.059Z,1019.32
2017-10-17T07:26:45.940Z,1019.32
2017-10-17T07:27:45.971Z,1019.29
2017-10-17T07:28:45.894Z,1019.28
2017-10-17T07:29:45.869Z,1019.32
2017-10-17T07:30:46.406Z,1019.33
2017-10-17T07:31:46.411Z,1019.32
2017-10-17T07:32:45.903Z,1019.31
2017-10-17T07:33:45.781Z,1019.33
2017-10-17T07:34:45.756Z,1019.35
2017-10-17T07:35:45.822Z,1019.35
2017-10-17T07:36:45.715Z,1019.37
2017-10-17T07:37:45.734Z,1019.33
2017-10-17T07:38:45.677Z,1019.31
2017-10-17T07:39:45.748Z,1019.27
2017-10-17T07:40:45.628Z,1019.30
2017-10-17T07:41:45.659Z,1019.33
2017-10-17T07:42:45.579Z,1019.35
2017-10-17T07:43:45.670Z,1019.32
2017-10-17T07:44:45.541Z,1019.34
2017-10-17T07:45:45.584Z,1019.34
2017-10-17T07:46:45.497Z,1019.31
2017-10-17T07:47:45.497Z,1019.33
2017-10-17T07:48:45.452Z,1019.33
2017-10-17T07:49:45.507Z,1019.30
2017-10-17T07:50:45.409Z,1019.24
2017-10-17T07:51:45.423Z,1019.22
2017-10-17T07:52:45.370Z,1019.25
2017-10-17T07:53:45.435Z,1019.24
2017-10-17T07:54:45.318Z,1019.25
2017-10-17T07:55:45.346Z,1019.27
2017-10-17T07:56:45.273Z,1019.28
2017-10-17T07:57:45.362Z,1019.25
2017-10-17T07:58:45.241Z,1019.23
2017-10-17T07:59:45.272Z,1019.26
2017-10-17T08:00:45.186Z,1019.27
2017-10-17T08:01:45.183Z,1019.30
2017-10-17T08:02:45.143Z,1019.27
2017-10-17T08:03:45.198Z,1019.28
2017-10-17T08:04:45.098Z,1019.29
2017-10-17T08:05:45.106Z,1019.27
2017-10-17T08:06:45.054Z,1019.26
2017-10-17T08:07:45.118Z,1019.29
2017-10-17T08:08:45.017Z,1019.27
2017-10-17T08:09:45.033Z,1019.23
2017-10-17T08:10:44.971Z,1019.22
2017-10-17T08:11:45.053Z,1019.19
2017-10-17T08:12:44.927Z,1019.16
2017-10-17T08:13:44.960Z,1019.17
2017-10-17T08:14:44.883Z,1019.16
2017-10-17T08:15:44.974Z,1019.19
2017-10-17T08:16:44.837Z,1019.16
2017-10-17T08:17:44.887Z,1019.21
2017-10-17T08:18:44.798Z,1019.21
2017-10-17T08:19:44.794Z,1019.20
2017-10-17T08:20:44.752Z,1019.22
2017-10-17T08:21:44.807Z,1019.21
2017-10-17T08:22:44.705Z,1019.21
2017-10-17T08:23:44.719Z,1019.23
2017-10-17T08:24:44.672Z,1019.18
2017-10-17T08:25:44.732Z,1019.21
2017-10-17T08:26:44.621Z,1019.19
2017-10-17T08:27:44.645Z,1019.25
2017-10-17T08:28:44.583Z,1019.20
2017-10-17T08:29:44.666Z,1019.21
2017-10-17T08:30:44.543Z,1019.22
2017-10-17T08:31:44.574Z,1019.25
2017-10-17T08:32:44.498Z,1019.20
2017-10-17T08:33:44.587Z,1019.20
2017-10-17T08:34:44.454Z,1019.21
2017-10-17T08:35:44.498Z,1019.16
2017-10-17T08:36:44.412Z,1019.17
2017-10-17T08:37:44.406Z,1019.19
2017-10-17T08:38:44.377Z,1019.15
2017-10-17T08:39:44.426Z,1019.13
2017-10-17T08:40:44.342Z,1019.13
2017-10-17T08:41:44.334Z,1019.10
2017-10-17T08:42:44.281Z,1019.10
2017-10-17T08:43:44.348Z,1019.08
2017-10-17T08:44:44.237Z,1019.10
2017-10-17T08:45:44.260Z,1019.11
2017-10-17T08:46:44.195Z,1019.10
2017-10-17T08:47:44.275Z,1019.08
2017-10-17T08:48:44.150Z,1019.05
2017-10-17T08:49:44.181Z,1019.07
2017-10-17T08:50:44.115Z,1019.07
2017-10-17T08:51:44.195Z,1019.08
2017-10-17T08:52:44.064Z,1019.10
2017-10-17T08:53:44.110Z,1019.11
2017-10-17T08:54:44.024Z,1019.06
2017-10-17T08:55:44.019Z,1019.06
2017-10-17T08:56:43.987Z,1019.07
2017-10-17T08:57:44.037Z,1019.04
2017-10-17T08:58:43.941Z,1019.05
2017-10-17T08:59:43.946Z,1019.06
2017-10-17T09:00:43.899Z,1019.04
2017-10-17T09:01:43.960Z,1019.06
2017-10-17T09:02:43.853Z,1019.05
2017-10-17T09:03:43.869Z,1019.03
2017-10-17T09:04:43.813Z,1019.04
2017-10-17T09:05:43.885Z,1019.07
2017-10-17T09:06:43.769Z,1019.11
2017-10-17T09:07:43.794Z,1019.10
2017-10-17T09:08:43.727Z,1019.09
2017-10-17T09:09:43.812Z,1019.12
2017-10-17T09:10:43.682Z,1019.13
2017-10-17T09:11:43.726Z,1019.13
2017-10-17T09:12:43.643Z,1019.11
2017-10-17T09:13:43.633Z,1019.15
2017-10-17T09:14:43.613Z,1019.16
2017-10-17T09:15:43.653Z,1019.11
2017-10-17T09:16:43.564Z,1019.09
2017-10-17T09:17:43.562Z,1019.10
2017-10-17T09:18:43.517Z,1019.08
2017-10-17T09:19:43.575Z,1019.09
2017-10-17T09:20:43.476Z,1019.03
2017-10-17T09:21:43.535Z,1019.09
2017-10-17T09:22:43.430Z,1019.07
2017-10-17T09:23:43.575Z,1019.06
2017-10-17T09:24:43.439Z,1019.04
2017-10-17T09:25:43.412Z,1019.07
2017-10-17T09:26:43.347Z,1019.11
2017-10-17T09:27:43.328Z,1019.07
2017-10-17T09:28:43.330Z,1019.09
2017-10-17T09:29:43.286Z,1019.14
2017-10-17T09:30:43.351Z,1019.12
2017-10-17T09:31:43.246Z,1019.08
2017-10-17T09:32:43.255Z,1019.08
2017-10-17T09:33:43.203Z,1019.08
2017-10-17T09:34:43.269Z,1019.08
2017-10-17T09:35:43.161Z,1019.07
2017-10-17T09:36:43.187Z,1019.09
2017-10-17T09:37:43.122Z,1019.04
2017-10-17T09:38:43.196Z,1019.05
2017-10-17T09:39:43.083Z,1019.03
2017-10-17T09:40:43.107Z,1018.99
2017-10-17T09:41:43.042Z,1019.03
2017-10-17T09:42:43.121Z,1019.01
2017-10-17T09:43:43.000Z,1018.99
2017-10-17T09:44:43.032Z,1019.02
2017-10-17T09:45:42.965Z,1019.01
2017-10-17T09:46:43.046Z,1019.01
2017-10-17T09:47:42.919Z,1019.00
2017-10-17T09:48:42.957Z,1018.98
2017-10-17T09:49:42.880Z,1019.01
2017-10-17T09:50:42.972Z,1019.01
2017-10-17T09:51:42.849Z,1019.01
2017-10-17T09:52:42.883Z,1018.98
2017-10-17T09:53:42.808Z,1018.99
2017-10-17T09:54:42.795Z,1018.97
2017-10-17T09:55:42.759Z,1018.99
2017-10-17T09:56:42.833Z,1018.98
2017-10-17T09:57:42.732Z,1019.02
2017-10-17T09:58:42.722Z,1018.99
2017-10-17T09:59:42.681Z,1019.03
2017-10-17T10:00:42.735Z,1019.02
2017-10-17T10:01:43.472Z,1019.03
2017-10-17T10:02:42.621Z,1019.02
2017-10-17T10:03:42.606Z,1019.03
2017-10-17T10:04:42.662Z,1019.01
2017-10-17T10:05:42.560Z,1019.02
2017-10-17T10:06:42.571Z,1019.01
2017-10-17T10:07:42.517Z,1018.99
2017-10-17T10:08:42.583Z,1018.98
2017-10-17T10:09:42.483Z,1018.99
2017-10-17T10:10:42.496Z,1018.93
2017-10-17T10:11:42.442Z,1018.92
2017-10-17T10:12:42.509Z,1018.93
2017-10-17T10:13:42.398Z,1018.91
2017-10-17T10:14:42.428Z,1018.89
2017-10-17T10:15:42.420Z,1018.96
2017-10-17T10:16:42.445Z,1019.01
2017-10-17T10:17:42.322Z,1018.98
2017-10-17T10:18:42.346Z,1018.97
2017-10-17T10:19:42.285Z,1018.92
2017-10-17T10:20:42.361Z,1018.93
2017-10-17T10:21:42.251Z,1018.96
2017-10-17T10:22:42.270Z,1018.97
2017-10-17T10:23:42.205Z,1018.98
2017-10-17T10:24:42.289Z,1018.99
2017-10-17T10:25:42.166Z,1019.04
2017-10-17T10:26:42.199Z,1019.07
2017-10-17T10:27:42.125Z,1019.10
2017-10-17T10:28:42.213Z,1019.01
2017-10-17T10:29:42.086Z,1019.08
2017-10-17T10:30:42.125Z,1019.02
2017-10-17T10:31:42.051Z,1019.00
2017-10-17T10:32:42.138Z,1018.99
2017-10-17T10:33:42.009Z,1018.93
2017-10-17T10:34:42.051Z,1018.97
2017-10-17T10:35:41.977Z,1018.96
2017-10-17T10:36:42.071Z,1018.98
2017-10-17T10:37:41.935Z,1018.98
2017-10-17T10:38:41.976Z,1018.95
2017-10-17T10:39:41.895Z,1018.93
2017-10-17T10:40:41.990Z,1018.91
2017-10-17T10:41:41.858Z,1018.92
2017-10-17T10:42:41.905Z,1018.90
2017-10-17T10:43:41.825Z,1018.87
2017-10-17T10:44:41.916Z,1018.94
2017-10-17T10:45:41.784Z,1018.91
2017-10-17T10:46:41.836Z,1018.93
2017-10-17T10:47:41.748Z,1018.88
2017-10-17T10:48:41.844Z,1018.85
2017-10-17T10:49:41.708Z,1018.86
2017-10-17T10:50:41.756Z,1018.86
2017-10-17T10:51:41.670Z,1018.91
2017-10-17T10:52:41.669Z,1018.84
2017-10-17T10:53:41.632Z,1018.85
2017-10-17T10:54:41.680Z,1018.81
2017-10-17T10:55:41.588Z,1018.87
2017-10-17T10:56:41.594Z,1018.86
2017-10-17T10:57:41.555Z,1018.85
2017-10-17T10:58:41.603Z,1018.81
2017-10-17T10:59:41.513Z,1018.80
2017-10-17T11:00:41.515Z,1018.76
2017-10-17T11:01:41.477Z,1018.76
2017-10-17T11:02:41.529Z,1018.77
2017-10-17T11:03:41.435Z,1018.73
2017-10-17T11:04:41.447Z,1018.76
2017-10-17T11:05:41.404Z,1018.76
2017-10-17T11:06:41.456Z,1018.77
2017-10-17T11:07:41.364Z,1018.79
2017-10-17T11:08:41.365Z,1018.76
2017-10-17T11:09:41.328Z,1018.74
2017-10-17T11:10:41.379Z,1018.77
2017-10-17T11:11:41.284Z,1018.76
2017-10-17T11:12:41.291Z,1018.76
2017-10-17T11:13:41.241Z,1018.71
2017-10-17T11:14:41.307Z,1018.73
2017-10-17T11:15:41.210Z,1018.80
2017-10-17T11:16:41.215Z,1018.73
2017-10-17T11:17:41.162Z,1018.69
2017-10-17T11:18:41.231Z,1018.73
2017-10-17T11:19:41.123Z,1018.70
2017-10-17T11:20:41.135Z,1018.66
2017-10-17T11:21:41.086Z,1018.65
2017-10-17T11:22:41.156Z,1018.69
2017-10-17T11:23:41.052Z,1018.62
2017-10-17T11:24:41.067Z,1018.60
2017-10-17T11:25:41.008Z,1018.63
2017-10-17T11:26:41.079Z,1018.70
2017-10-17T11:27:40.973Z,1018.59
2017-10-17T11:28:40.990Z,1018.57
2017-10-17T11:29:40.937Z,1018.58
2017-10-17T11:30:41.006Z,1018.54
2017-10-17T11:31:40.891Z,1018.58
2017-10-17T11:32:40.915Z,1018.52
2017-10-17T11:33:40.852Z,1018.47
2017-10-17T11:34:40.928Z,1018.52
2017-10-17T11:35:40.813Z,1018.49
2017-10-17T11:36:40.844Z,1018.51
2017-10-17T11:37:40.774Z,1018.51
2017-10-17T11:38:40.853Z,1018.61
2017-10-17T11:39:40.737Z,1018.53
2017-10-17T11:40:40.764Z,1018.53
2017-10-17T11:41:40.693Z,1018.44
2017-10-17T11:42:40.778Z,1018.50
2017-10-17T11:43:40.660Z,1018.73
2017-10-17T11:44:40.693Z,1018.76
2017-10-17T11:45:40.614Z,1018.76
2017-10-17T11:46:40.708Z,1018.75
2017-10-17T11:47:40.580Z,1018.58
2017-10-17T11:48:40.615Z,1018.62
2017-10-17T11:49:40.538Z,1018.37
2017-10-17T11:50:40.628Z,1018.38
2017-10-17T11:51:40.507Z,1018.36
2017-10-17T11:52:40.540Z,1018.31
2017-10-17T11:53:40.466Z,1018.31
2017-10-17T11:54:40.553Z,1018.32
2017-10-17T11:55:40.428Z,1018.32
2017-10-17T11:56:40.464Z,1018.25
2017-10-17T11:57:40.412Z,1018.26
2017-10-17T11:58:40.479Z,1018.51
2017-10-17T11:59:40.529Z,1018.24
2017-10-17T12:00:40.418Z,1018.16
2017-10-17T12:01:40.312Z,1018.17
2017-10-17T12:02:40.409Z,1018.14
2017-10-17T12:03:40.278Z,1018.14
2017-10-17T12:04:40.317Z,1018.08
2017-10-17T12:05:40.235Z,1018.14